Time;durP1;ratioP1;P1;durP2;ratioP2;P2;SDS_P1;SDS_P2;PMS_P1;PMS_P2;Temp;Humidity;BMP_temperature;BMP_pressure;BME280_temperature;BME280_humidity;BME280_pressure;Samples;Min_cycle;Max_cycle;Signal;HPM_P1;HPM_P2
2022/03/18 05:22:37;;;;;;;22.00;9.75;;;;;;;6.47;82.66;102260.19;5111267;27;20528;-75
2022/03/18 05:25:02;;;;;;;14.95;5.82;;;;;;;6.54;82.19;102269.44;5109805;28;20111;-75
2022/03/18 05:27:28;;;;;;;18.20;6.32;;;;;;;6.54;81.74;102280.00;5109307;28;20067;-75
2022/03/18 05:29:55;;;;;;;16.20;6.68;;;;;;;6.52;81.85;102276.63;5109448;28;20404;-75
2022/03/18 05:32:20;;;;;;;12.48;5.50;;;;;;;6.55;81.57;102288.81;5108906;28;20054;-75
2022/03/18 05:34:46;;;;;;;12.52;6.45;;;;;;;6.40;82.47;102280.03;5118981;22;20044;-71
2022/03/18 05:37:12;;;;;;;18.23;8.10;;;;;;;6.53;82.43;102294.22;5088373;28;20107;-70
2022/03/18 05:39:38;;;;;;;15.32;7.30;;;;;;;6.56;82.10;102296.66;5088373;28;20043;-70
2022/03/18 05:42:04;;;;;;;15.27;6.07;;;;;;;6.53;82.00;102299.50;5088168;28;20550;-70
2022/03/18 05:44:30;;;;;;;18.90;5.88;;;;;;;6.57;81.39;102311.59;5115021;28;20055;-70
2022/03/18 05:46:56;;;;;;;17.75;5.55;;;;;;;6.53;82.24;102310.09;5108647;28;20114;-69
2022/03/18 05:49:22;;;;;;;14.35;6.97;;;;;;;6.53;82.22;102310.09;5108645;28;20039;-70
2022/03/18 05:51:48;;;;;;;15.95;6.57;;;;;;;6.51;81.89;102311.97;5108320;28;20458;-70
2022/03/18 05:54:14;;;;;;;16.52;6.70;;;;;;;6.57;81.64;102308.09;5107075;28;20123;-70
2022/03/18 05:56:55;;;;;;;16.77;7.00;;;;;;;6.59;80.86;102311.50;5107362;28;20054;-70
2022/03/18 05:59:28;;;;;;;22.58;6.80;;;;;;;6.52;81.80;102311.03;5108450;28;20035;-70
2022/03/18 06:01:56;;;;;;;15.00;6.03;;;;;;;6.55;80.79;102302.91;5108308;28;20085;-70
2022/03/18 06:04:22;;;;;;;;;;;;;;;6.61;80.89;102312.25;5108679;28;20572;-70
2022/03/18 06:06:48;;;;;;;17.35;6.97;;;;;;;6.61;80.84;102315.75;5108328;28;19912;-70
2022/03/18 06:11:59;;;;;;;17.73;6.03;;;;;;;6.52;81.13;102311.91;5107978;28;20388;-70
2022/03/18 06:14:27;;;;;;;16.30;6.45;;;;;;;6.52;81.69;102316.34;5108120;28;20034;-70
2022/03/18 06:16:54;;;;;;;14.13;6.15;;;;;;;6.53;81.06;102318.03;5108110;28;20070;-70
2022/03/18 06:19:22;;;;;;;34.67;9.73;;;;;;;6.52;81.57;102322.50;5107955;28;20036;-70
2022/03/18 06:21:48;;;;;;;15.87;6.80;;;;;;;6.57;81.04;102327.47;5107796;28;20111;-70
2022/03/18 06:24:15;;;;;;;18.65;7.32;;;;;;;6.52;81.86;102329.59;5107916;28;20028;-70
2022/03/18 06:26:41;;;;;;;15.70;6.72;;;;;;;6.59;80.74;102335.34;5108110;28;20448;-70
2022/03/18 06:29:07;;;;;;;18.58;6.53;;;;;;;6.58;81.00;102333.63;5107826;28;20145;-70
2022/03/18 06:31:33;;;;;;;19.75;6.90;;;;;;;6.55;81.21;102329.38;5107658;28;20416;-70
2022/03/18 06:34:03;;;;;;;14.75;6.05;;;;;;;6.57;81.45;102332.75;5092229;28;20115;-70
2022/03/18 06:36:29;;;;;;;18.50;6.57;;;;;;;6.54;81.68;102348.84;5094136;28;20391;-70
2022/03/18 06:38:55;;;;;;;23.52;7.65;;;;;;;6.59;81.60;102345.94;5094024;28;20044;-69
2022/03/18 06:41:22;;;;;;;23.40;8.40;;;;;;;6.50;81.56;102347.34;5093903;28;20496;-69
2022/03/18 06:43:49;;;;;;;19.40;7.30;;;;;;;6.62;81.19;102353.66;5093757;28;20052;-69
2022/03/18 06:46:16;;;;;;;19.20;7.10;;;;;;;6.64;80.93;102344.66;5093624;28;20374;-69
2022/03/18 06:48:42;;;;;;;16.20;6.72;;;;;;;6.73;80.60;102360.00;5093810;28;20067;-69
2022/03/18 06:51:08;;;;;;;14.20;6.47;;;;;;;6.73;80.30;102361.78;5093798;28;20046;-69
2022/03/18 06:53:34;;;;;;;20.45;7.50;;;;;;;6.75;80.45;102363.38;5093531;28;20060;-68
2022/03/18 06:56:00;;;;;;;18.25;7.05;;;;;;;6.78;80.90;102368.50;5093730;28;20063;-69
2022/03/18 06:58:29;;;;;;;15.63;7.10;;;;;;;6.80;80.08;102368.41;5092305;28;20043;-69
2022/03/18 07:00:56;;;;;;;20.17;8.27;;;;;;;6.82;80.59;102363.00;5092248;28;20040;-69
2022/03/18 07:03:22;;;;;;;15.38;7.20;;;;;;;6.85;79.92;102362.81;5093186;28;20134;-70
2022/03/18 07:05:47;;;;;;;18.77;6.90;;;;;;;6.92;79.42;102364.13;5093553;28;20107;-69
2022/03/18 07:08:13;;;;;;;22.50;8.02;;;;;;;6.92;80.24;102370.28;5093433;28;20525;-69
2022/03/18 07:10:39;;;;;;;17.80;7.82;;;;;;;6.84;80.38;102371.69;5093352;28;20062;-69
2022/03/18 07:13:05;;;;;;;20.58;6.97;;;;;;;6.88;80.48;102373.22;5093203;28;20028;-69
2022/03/18 07:15:30;;;;;;;20.20;7.03;;;;;;;6.89;80.65;102370.47;5093367;28;20409;-69
2022/03/18 07:17:59;;;;;;;23.25;7.70;;;;;;;6.91;80.31;102379.19;5093315;28;20036;-69
2022/03/18 07:20:36;;;;;;;19.92;8.35;;;;;;;7.00;80.80;102377.72;5093219;28;20071;-69
2022/03/18 07:23:03;;;;;;;15.33;7.93;;;;;;;7.07;79.83;102379.03;5092835;28;20626;-69
2022/03/18 07:25:29;;;;;;;21.80;8.25;;;;;;;7.10;79.54;102375.31;5093090;28;20044;-69
2022/03/18 07:27:56;;;;;;;27.02;9.05;;;;;;;7.13;78.94;102373.34;5093108;28;20036;-69
2022/03/18 07:30:21;;;;;;;21.67;7.80;;;;;;;6.92;80.43;102382.69;5093085;28;20484;-69
2022/03/18 07:32:47;;;;;;;17.40;7.43;;;;;;;6.99;80.35;102382.19;5091581;28;20048;-70
2022/03/18 07:35:14;;;;;;;24.48;8.13;;;;;;;7.03;79.27;102381.03;5092990;28;20039;-68
2022/03/18 07:37:40;;;;;;;26.45;8.55;;;;;;;6.92;80.48;102391.47;5093639;28;20035;-69
2022/03/18 07:40:08;;;;;;;20.35;7.72;;;;;;;7.02;80.03;102381.13;5092851;28;20103;-68
2022/03/18 07:42:44;;;;;;;23.40;7.50;;;;;;;7.08;80.74;102394.84;5092514;28;20558;-69
2022/03/18 07:45:11;;;;;;;21.17;7.90;;;;;;;7.05;79.39;102389.75;5091797;28;20036;-68
2022/03/18 07:47:37;;;;;;;24.97;8.13;;;;;;;6.98;79.78;102379.63;5092805;28;20445;-68
2022/03/18 07:50:02;;;;;;;21.65;8.48;;;;;;;7.10;79.82;102399.19;5092622;28;20043;-69
2022/03/18 07:52:28;;;;;;;21.95;8.32;;;;;;;7.23;78.89;102395.63;5092342;28;20035;-68
2022/03/18 07:54:53;;;;;;;27.60;8.77;;;;;;;7.23;80.07;102397.44;5092583;28;20082;-67
2022/03/18 07:57:19;;;;;;;23.00;10.05;;;;;;;7.19;79.93;102396.81;5091777;28;20035;-67
2022/03/18 07:59:45;;;;;;;26.00;7.88;;;;;;;7.25;79.47;102408.81;5092806;28;20044;-67
2022/03/18 08:02:10;;;;;;;20.33;7.55;;;;;;;7.26;79.27;102402.56;5092216;28;20481;-67
2022/03/18 08:04:36;;;;;;;20.60;9.30;;;;;;;7.15;80.39;102413.00;5092305;28;20111;-67
2022/03/18 08:07:03;;;;;;;20.63;8.52;;;;;;;7.18;79.67;102408.38;5092724;28;20461;-70
2022/03/18 08:09:28;;;;;;;24.15;8.77;;;;;;;7.19;79.70;102410.06;5092479;28;20073;-69
2022/03/18 08:11:54;;;;;;;25.75;9.45;;;;;;;7.21;81.04;102418.75;5092034;28;20085;-69
2022/03/18 08:14:20;;;;;;;28.27;9.02;;;;;;;7.15;80.95;102411.19;5092474;28;20028;-69
2022/03/18 08:16:45;;;;;;;37.80;9.90;;;;;;;7.30;79.43;102422.59;5092586;28;20043;-69
2022/03/18 08:19:11;;;;;;;32.13;10.32;;;;;;;7.37;78.77;102420.41;5091219;28;20077;-69
2022/03/18 08:21:37;;;;;;;22.63;8.98;;;;;;;7.17;79.46;102416.38;5092556;28;20036;-70
2022/03/18 08:24:04;;;;;;;25.98;9.10;;;;;;;7.05;79.50;102426.00;5092163;28;20396;-70
2022/03/18 08:26:29;;;;;;;26.05;9.02;;;;;;;7.23;79.36;102426.59;5092017;28;20594;-70
2022/03/18 08:28:55;;;;;;;23.02;8.30;;;;;;;7.16;79.17;102420.84;5091015;28;20130;-70
2022/03/18 08:31:21;;;;;;;23.70;9.60;;;;;;;7.12;79.26;102431.75;5090907;28;20037;-70
2022/03/18 08:33:46;;;;;;;22.75;8.98;;;;;;;7.19;79.73;102433.06;5092795;28;20036;-71
2022/03/18 08:36:12;;;;;;;26.10;9.15;;;;;;;7.31;78.87;102433.13;5096073;28;20051;-71
2022/03/18 08:38:39;;;;;;;28.88;8.35;;;;;;;7.21;78.73;102433.81;5095158;28;20039;-69
2022/03/18 08:41:05;;;;;;;22.40;8.73;;;;;;;7.30;79.02;102434.09;5092147;28;20024;-70
2022/03/18 08:43:31;;;;;;;28.40;9.82;;;;;;;7.25;79.04;102430.88;5091950;28;20039;-69
2022/03/18 08:45:57;;;;;;;29.17;11.07;;;;;;;7.21;79.25;102439.09;5091619;28;20101;-69
2022/03/18 08:48:22;;;;;;;27.85;9.93;;;;;;;7.24;79.40;102442.44;5091791;28;20473;-69
2022/03/18 08:50:48;;;;;;;27.20;9.65;;;;;;;7.42;78.45;102434.22;5091706;28;20040;-68
2022/03/18 08:53:14;;;;;;;23.77;9.98;;;;;;;7.47;78.58;102437.44;5091326;28;20485;-69
2022/03/18 08:55:40;;;;;;;33.03;10.55;;;;;;;7.60;77.61;102439.16;5073263;28;20044;-68
2022/03/18 08:58:07;;;;;;;29.15;9.57;;;;;;;7.65;77.28;102436.22;5091634;28;20043;-69
2022/03/18 09:00:34;;;;;;;29.83;10.00;;;;;;;7.68;77.52;102449.28;5091775;28;20043;-68
2022/03/18 09:02:59;;;;;;;30.15;9.80;;;;;;;7.69;77.29;102439.50;5091563;28;20412;-68
2022/03/18 09:05:25;;;;;;;24.50;9.95;;;;;;;7.67;77.06;102436.97;5090247;28;20043;-68
2022/03/18 09:07:51;;;;;;;21.00;8.55;;;;;;;7.70;77.16;102446.53;5091395;28;20138;-68
2022/03/18 09:10:16;;;;;;;35.45;10.77;;;;;;;7.65;77.16;102433.56;5091639;28;20098;-68
2022/03/18 09:12:52;;;;;;;28.88;10.13;;;;;;;7.74;76.68;102438.25;5090034;28;20075;-68
2022/03/18 09:15:17;;;;;;;31.42;11.00;;;;;;;7.74;77.42;102443.56;5091522;28;20441;-68
2022/03/18 09:17:43;;;;;;;30.30;10.15;;;;;;;7.74;78.35;102443.56;5091726;28;20032;-69
2022/03/18 09:20:09;;;;;;;34.33;13.88;;;;;;;7.96;76.53;102447.47;5090054;28;20399;-68
2022/03/18 09:22:35;;;;;;;22.65;9.63;;;;;;;8.01;76.98;102448.81;5091025;28;20069;-68
2022/03/18 09:25:00;;;;;;;27.88;9.18;;;;;;;8.10;76.75;102453.53;5091481;28;20123;-68
2022/03/18 09:27:26;;;;;;;26.80;10.57;;;;;;;8.10;76.98;102456.19;5091427;28;20032;-69
2022/03/18 09:29:52;;;;;;;28.75;10.73;;;;;;;8.08;78.07;102458.06;5089945;28;20117;-69
2022/03/18 09:32:17;;;;;;;29.73;9.77;;;;;;;8.22;76.57;102453.66;5090834;28;20032;-68
2022/03/18 09:34:43;;;;;;;30.95;10.27;;;;;;;8.35;75.63;102444.78;5091968;28;20043;-68
2022/03/18 09:37:08;;;;;;;26.55;10.30;;;;;;;8.40;75.31;102455.91;5091301;28;20091;-68
2022/03/18 09:39:34;;;;;;;26.08;10.75;;;;;;;8.50;74.71;102447.34;5091179;28;20047;-68
2022/03/18 09:42:00;;;;;;;29.25;10.48;;;;;;;8.58;74.44;102444.97;5091140;28;20024;-68
2022/03/18 09:44:36;;;;;;;26.77;10.27;;;;;;;8.54;76.05;102443.50;5091108;28;20044;-68
2022/03/18 09:47:07;;;;;;;27.38;11.50;;;;;;;8.57;75.89;102451.25;5091071;28;20034;-68
2022/03/18 09:49:35;;;;;;;32.20;12.10;;;;;;;8.70;74.32;102441.47;5090866;28;20063;-68
2022/03/18 09:52:04;;;;;;;40.10;13.65;;;;;;;8.77;74.38;102449.88;5091051;28;20528;-68
2022/03/18 09:54:32;;;;;;;42.55;16.30;;;;;;;8.86;73.19;102451.84;5091077;28;20477;-68
2022/03/18 09:56:58;;;;;;;43.55;16.70;;;;;;;9.03;72.98;102450.66;5091003;28;20024;-68
2022/03/18 09:59:27;;;;;;;51.47;15.43;;;;;;;9.09;72.62;102459.06;5091411;28;20072;-69
2022/03/18 10:02:30;;;;;;;44.30;16.63;;;;;;;9.04;72.06;102452.38;5091233;28;20070;-69
2022/03/18 10:04:59;;;;;;;40.85;16.65;;;;;;;9.23;71.57;102453.59;5091257;28;20063;-69
2022/03/18 10:07:26;;;;;;;46.53;18.30;;;;;;;9.19;71.12;102456.56;5091711;28;20036;-69
2022/03/18 10:10:04;;;;;;;47.85;18.35;;;;;;;9.17;70.99;102462.00;5094862;28;20032;-69
2022/03/18 10:12:33;;;;;;;42.00;16.27;;;;;;;9.19;72.00;102452.13;5094231;28;20051;-68
2022/03/18 10:15:03;;;;;;;40.47;16.98;;;;;;;9.19;71.87;102453.91;5094705;28;20024;-68
2022/03/18 10:17:40;;;;;;;45.78;16.38;;;;;;;9.21;71.55;102446.69;5094808;28;20066;-68
2022/03/18 10:20:06;;;;;;;;;;;;;;;9.26;70.88;102460.50;5095140;28;20027;-68
2022/03/18 10:22:33;;;;;;;50.65;17.92;;;;;;;9.32;70.80;102459.19;5094213;28;19912;-69
2022/03/18 10:25:00;;;;;;;52.05;19.40;;;;;;;9.29;70.41;102452.31;5093304;28;20119;-69
2022/03/18 10:27:26;;;;;;;48.45;19.95;;;;;;;9.38;70.20;102440.13;5094580;28;20066;-68
2022/03/18 10:29:54;;;;;;;45.33;18.27;;;;;;;9.48;70.31;102452.66;5094381;28;20454;-68
2022/03/18 10:32:23;;;;;;;55.25;21.67;;;;;;;9.60;69.65;102447.41;5094041;28;20104;-69
2022/03/18 10:37:54;;;;;;;52.45;20.17;;;;;;;9.83;68.90;102456.31;5094958;28;20042;-68
2022/03/18 10:40:34;;;;;;;45.90;19.50;;;;;;;9.85;68.78;102449.94;5094531;28;20032;-68
2022/03/18 10:43:03;;;;;;;50.38;19.33;;;;;;;9.90;68.34;102437.09;5093991;28;20032;-69
2022/03/18 10:45:29;;;;;;;52.88;19.75;;;;;;;10.14;67.95;102466.34;5092784;28;20043;-69
2022/03/18 10:48:10;;;;;;;55.90;21.15;;;;;;;10.41;66.70;102465.25;5094032;28;20044;-69
2022/03/18 10:50:37;;;;;;;53.67;22.17;;;;;;;10.62;65.31;102455.56;5093895;28;20453;-68
2022/03/18 10:53:06;;;;;;;50.72;20.38;;;;;;;10.87;64.15;102465.16;5092615;28;20044;-69
2022/03/18 10:55:42;;;;;;;50.20;22.88;;;;;;;11.12;63.60;102456.06;5094447;28;20031;-68
2022/03/18 10:58:17;;;;;;;61.03;24.45;;;;;;;11.03;62.97;102454.13;5093925;28;20489;-68
2022/03/18 11:00:49;;;;;;;63.65;25.95;;;;;;;11.09;62.83;102456.31;5094133;28;20040;-68
2022/03/18 11:03:14;;;;;;;57.67;23.08;;;;;;;11.13;63.13;102447.91;5093358;28;20494;-68
2022/03/18 11:05:42;;;;;;;57.90;24.23;;;;;;;11.37;62.69;102454.91;5093600;28;20035;-68
2022/03/18 11:08:13;;;;;;;;;;;;;;;11.36;62.37;102454.06;5093991;28;20074;-68
2022/03/18 11:13:53;;;;;;;57.45;23.77;;;;;;;11.60;60.35;102453.88;5093176;28;20042;-68
2022/03/18 11:16:28;;;;;;;;;;;;;;;11.82;60.05;102458.31;5094153;28;20032;-69
2022/03/18 11:18:54;;;;;;;60.33;24.65;;;;;;;11.81;60.29;102461.13;5093964;28;19951;-69
2022/03/18 11:21:21;;;;;;;67.43;25.38;;;;;;;11.43;60.64;102456.25;5093431;28;20051;-68
2022/03/18 11:23:48;;;;;;;63.47;27.30;;;;;;;11.50;60.45;102447.59;5093277;28;20438;-68
2022/03/18 11:26:19;;;;;;;63.50;28.02;;;;;;;11.73;60.13;102450.19;5093408;28;20294;-69
2022/03/18 11:28:45;;;;;;;55.75;24.85;;;;;;;11.52;61.15;102452.81;5093141;28;20044;-68
2022/03/18 11:31:17;;;;;;;54.88;24.33;;;;;;;11.47;60.47;102445.16;5093263;28;20050;-68
2022/03/18 11:34:07;;;;;;;61.38;24.10;;;;;;;11.53;60.86;102450.00;5074419;28;20414;-68
2022/03/18 11:36:34;;;;;;;62.10;24.67;;;;;;;11.58;60.85;102433.63;5105429;22;20110;-69
2022/03/18 11:39:06;;;;;;;76.97;27.58;;;;;;;11.52;60.38;102444.81;5093227;28;20036;-70
2022/03/18 11:41:45;;;;;;;58.92;25.50;;;;;;;11.75;59.84;102427.75;5093350;28;20097;-70
2022/03/18 11:44:10;;;;;;;55.78;25.50;;;;;;;11.67;60.19;102440.84;5093276;28;20035;-70
2022/03/18 11:46:36;;;;;;;59.97;24.50;;;;;;;11.76;60.30;102441.94;5093045;28;20036;-69
2022/03/18 11:49:06;;;;;;;57.63;23.40;;;;;;;11.79;60.22;102437.16;5093062;28;20036;-69
2022/03/18 11:51:33;;;;;;;62.97;23.15;;;;;;;11.90;59.91;102436.31;5093000;28;20111;-71
2022/03/18 11:54:23;;;;;;;55.85;23.42;;;;;;;11.79;60.14;102425.66;5092937;28;20050;-70
2022/03/18 11:56:51;;;;;;;51.05;22.98;;;;;;;11.74;60.35;102428.72;5093056;28;20040;-69
2022/03/18 11:59:25;;;;;;;49.55;22.27;;;;;;;11.71;60.85;102417.44;5092923;28;20378;-69
2022/03/18 12:01:52;;;;;;;50.83;20.67;;;;;;;11.82;60.68;102422.78;5092417;28;20028;-70
2022/03/18 12:04:33;;;;;;;48.63;20.75;;;;;;;12.50;58.12;102406.16;5092653;28;20113;-71
2022/03/18 12:07:19;;;;;;;46.08;21.23;;;;;;;12.80;57.63;102408.97;5092596;28;20481;-71
2022/03/18 12:10:11;;;;;;;51.05;21.15;;;;;;;12.91;57.01;102415.06;5074278;28;20127;-71
2022/03/18 12:12:42;;;;;;;53.97;21.15;;;;;;;12.69;56.68;102412.59;5068557;28;20051;-71
2022/03/18 12:15:12;;;;;;;52.78;21.85;;;;;;;12.76;57.11;102411.91;5092528;28;20508;-71
2022/03/18 12:17:43;;;;;;;88.43;22.50;;;;;;;12.73;56.53;102422.03;5092400;28;20123;-71
2022/03/18 12:20:13;;;;;;;51.75;20.75;;;;;;;12.80;56.78;102425.03;5074317;28;20044;-72
2022/03/18 12:22:41;;;;;;;52.42;20.80;;;;;;;12.87;55.56;102418.16;5092092;28;20134;-72
2022/03/18 12:25:08;;;;;;;54.45;20.55;;;;;;;12.98;55.66;102416.22;5092236;28;20480;-71
2022/03/18 12:27:39;;;;;;;49.08;20.60;;;;;;;13.59;54.28;102420.56;5074470;28;20032;-71
2022/03/18 12:30:29;;;;;;;49.38;21.77;;;;;;;13.89;52.87;102406.19;5091929;28;20085;-71
2022/03/18 12:33:02;;;;;;;48.88;21.27;;;;;;;13.65;53.67;102408.44;5084425;28;20131;-71
2022/03/18 12:35:36;;;;;;;49.70;20.23;;;;;;;13.78;53.15;102409.84;5092265;28;20107;-71
2022/03/18 12:38:15;;;;;;;52.63;21.10;;;;;;;13.80;52.88;102409.72;5092065;28;20155;-71
2022/03/18 12:40:44;;;;;;;47.58;19.30;;;;;;;13.73;52.84;102406.75;5092097;28;20036;-71
2022/03/18 12:43:10;;;;;;;48.58;21.55;;;;;;;13.60;53.00;102398.16;5091900;28;20063;-71
2022/03/18 12:45:44;;;;;;;49.90;19.60;;;;;;;13.74;52.46;102403.09;5092119;28;20036;-71
2022/03/18 12:48:12;;;;;;;51.42;22.17;;;;;;;13.13;52.82;102379.22;5091915;28;20036;-72
2022/03/18 12:50:42;;;;;;;50.20;20.67;;;;;;;13.12;52.84;102392.75;5091646;28;20047;-70
2022/03/18 12:53:13;;;;;;;54.20;22.42;;;;;;;13.00;53.45;102410.72;5091636;28;20035;-71
2022/03/18 12:55:40;;;;;;;45.20;21.30;;;;;;;12.71;54.51;102418.63;5092308;28;20044;-71
2022/03/18 12:58:17;;;;;;;47.88;21.08;;;;;;;12.75;54.12;102412.06;5074281;28;20415;-71
2022/03/18 13:00:46;;;;;;;52.43;22.50;;;;;;;12.68;54.58;102413.56;5094511;28;20074;-71
2022/03/18 13:03:19;;;;;;;51.53;21.40;;;;;;;12.44;54.79;102397.84;5091621;28;20040;-72
2022/03/18 13:05:48;;;;;;;53.65;20.50;;;;;;;12.65;55.03;102397.78;5091767;28;20032;-71
2022/03/18 13:08:16;;;;;;;52.70;20.65;;;;;;;12.79;54.34;102415.31;5091649;28;20032;-72
2022/03/18 13:10:42;;;;;;;51.50;20.65;;;;;;;12.73;55.42;102406.84;5091645;28;20040;-72
2022/03/18 13:13:13;;;;;;;47.05;21.23;;;;;;;12.86;54.58;102400.41;5073274;28;20047;-72
2022/03/18 13:15:47;;;;;;;50.50;19.65;;;;;;;12.97;54.61;102392.25;5091601;28;20043;-72
2022/03/18 13:18:15;;;;;;;46.55;20.13;;;;;;;13.32;54.30;102397.16;5091482;28;20028;-71
2022/03/18 13:20:42;;;;;;;44.97;19.83;;;;;;;13.53;53.01;102391.69;5073403;28;20036;-72
2022/03/18 13:23:12;;;;;;;47.10;20.15;;;;;;;13.64;52.11;102399.56;5091517;28;20040;-71
2022/03/18 13:25:40;;;;;;;49.38;19.58;;;;;;;13.57;51.67;102391.25;5091561;28;20032;-71
2022/03/18 13:28:08;;;;;;;42.63;19.73;;;;;;;13.42;52.56;102399.84;5092252;28;20032;-72
2022/03/18 13:33:19;;;;;;;49.25;19.65;;;;;;;13.52;51.93;102400.69;5091137;28;20733;-72
2022/03/18 13:35:50;;;;;;;48.67;20.80;;;;;;;13.05;52.97;102397.78;5091242;28;20036;-70
2022/03/18 13:38:19;;;;;;;50.00;20.50;;;;;;;13.34;52.34;102399.69;5091346;28;20055;-71
2022/03/18 13:41:05;;;;;;;48.40;20.15;;;;;;;13.19;53.21;102393.88;5091761;28;20032;-71
2022/03/18 13:43:35;;;;;;;45.67;19.75;;;;;;;13.27;53.03;102394.91;5093504;28;20032;-71
2022/03/18 13:46:11;;;;;;;43.22;20.08;;;;;;;13.44;53.18;102390.69;5095462;28;20040;-70
2022/03/18 13:48:37;;;;;;;41.70;18.35;;;;;;;13.54;53.84;102385.31;5095586;28;20044;-70
2022/03/18 13:51:06;;;;;;;46.63;20.02;;;;;;;13.35;54.23;102380.81;5095301;28;20038;-72
2022/03/18 13:53:35;;;;;;;41.40;19.15;;;;;;;13.67;52.93;102387.72;5095193;28;20062;-72
2022/03/18 13:56:17;;;;;;;39.65;18.77;;;;;;;13.00;53.84;102387.50;5094987;28;20494;-72
2022/03/18 13:58:44;;;;;;;41.70;20.17;;;;;;;13.15;52.85;102382.59;5095041;28;20038;-70
2022/03/18 14:01:18;;;;;;;45.53;21.52;;;;;;;13.10;52.16;102387.50;5095103;28;20026;-70
2022/03/18 14:04:00;;;;;;;43.30;19.50;;;;;;;13.14;52.46;102372.88;5076705;28;20039;-69
2022/03/18 14:06:26;;;;;;;39.50;19.45;;;;;;;13.15;52.37;102374.56;5094995;28;20040;-70
2022/03/18 14:08:54;;;;;;;44.00;21.08;;;;;;;13.16;52.58;102388.78;5094990;28;20047;-72
2022/03/18 14:14:28;;;;;;;39.05;19.50;;;;;;;13.04;52.55;102370.19;5094842;28;20040;-71
2022/03/18 14:17:16;;;;;;;40.73;19.93;;;;;;;12.99;51.99;102360.88;5094699;28;20496;-71
2022/03/18 14:20:12;;;;;;;44.10;21.33;;;;;;;12.96;53.14;102361.16;5094824;28;20747;-70
2022/03/18 14:22:39;;;;;;;43.88;21.35;;;;;;;12.98;53.26;102361.88;5094447;28;20039;-70
2022/03/18 14:25:28;;;;;;;46.83;21.45;;;;;;;12.91;53.04;102358.91;5094562;28;20032;-72
2022/03/18 14:27:54;;;;;;;50.05;22.13;;;;;;;12.61;53.78;102365.13;5094546;28;20036;-72
2022/03/18 14:30:23;;;;;;;41.80;21.05;;;;;;;12.73;53.53;102365.88;5094512;28;20511;-71
2022/03/18 14:32:54;;;;;;;50.88;22.35;;;;;;;12.50;54.61;102360.72;5094134;28;20020;-71
2022/03/18 14:35:21;;;;;;;45.33;21.48;;;;;;;12.61;53.82;102350.94;5076187;28;20035;-71
2022/03/18 14:37:47;;;;;;;45.30;22.83;;;;;;;12.65;54.01;102355.88;5094225;28;20043;-72
2022/03/18 14:40:15;;;;;;;47.88;20.63;;;;;;;12.77;54.20;102351.25;5089492;28;20024;-70
2022/03/18 14:42:42;;;;;;;45.95;21.63;;;;;;;12.51;55.41;102348.19;5084790;28;20031;-72
2022/03/18 14:45:10;;;;;;;41.80;20.93;;;;;;;12.83;54.38;102357.88;5056198;28;20044;-70
2022/03/18 14:47:35;;;;;;;48.97;21.75;;;;;;;12.75;54.76;102351.38;5074117;28;20381;-70
2022/03/18 14:50:01;;;;;;;41.83;21.92;;;;;;;12.49;55.17;102334.97;5074535;28;20064;-70
2022/03/18 14:52:27;;;;;;;45.80;20.83;;;;;;;12.49;54.95;102343.00;5055742;28;20037;-70
2022/03/18 14:57:37;;;;;;;40.10;20.27;;;;;;;12.80;54.91;102347.47;5073784;28;20494;-70
2022/03/18 15:00:06;;;;;;;47.45;21.20;;;;;;;12.69;55.11;102340.38;5074827;28;20028;-71
2022/03/18 15:02:37;;;;;;;41.17;20.67;;;;;;;12.70;55.27;102342.06;5073252;28;20434;-71
2022/03/18 15:05:02;;;;;;;42.63;20.40;;;;;;;12.67;55.69;102342.38;5073926;28;20056;-70
2022/03/18 15:07:29;;;;;;;43.88;22.27;;;;;;;12.71;55.38;102344.63;5055683;28;20437;-70
2022/03/18 15:09:55;;;;;;;45.75;21.40;;;;;;;12.59;55.56;102335.03;5073404;28;20028;-69
2022/03/18 15:12:21;;;;;;;46.30;20.90;;;;;;;12.70;55.19;102344.75;5072967;28;20036;-70
2022/03/18 15:14:47;;;;;;;39.78;22.17;;;;;;;12.59;55.94;102335.03;5073459;28;20056;-70
2022/03/18 15:17:14;;;;;;;43.80;20.20;;;;;;;12.69;55.45;102341.22;5073769;28;20037;-70
2022/03/18 15:19:40;;;;;;;44.63;22.27;;;;;;;12.61;55.50;102337.56;5073774;28;20493;-70
2022/03/18 15:22:07;;;;;;;43.13;20.95;;;;;;;12.63;55.62;102336.44;5073160;28;20169;-71
2022/03/18 15:24:36;;;;;;;42.33;20.33;;;;;;;12.40;56.32;102329.63;5055518;28;20063;-72
2022/03/18 15:27:05;;;;;;;41.75;19.95;;;;;;;12.34;56.31;102340.84;5055844;28;20040;-72
2022/03/18 15:29:32;;;;;;;46.88;21.23;;;;;;;12.28;57.06;102346.72;5073238;28;20032;-70
2022/03/18 15:31:58;;;;;;;45.70;22.45;;;;;;;12.38;56.34;102334.22;5072794;28;20033;-72
2022/03/18 15:34:24;;;;;;;54.20;24.70;;;;;;;12.35;56.27;102334.50;5072995;28;20024;-71
2022/03/18 15:36:49;;;;;;;53.03;21.85;;;;;;;12.29;55.93;102322.53;5072851;28;20148;-71
2022/03/18 15:39:17;;;;;;;41.65;20.23;;;;;;;12.17;56.68;102343.13;5072837;28;20032;-70
2022/03/18 15:41:48;;;;;;;52.38;24.42;;;;;;;12.28;56.94;102336.88;5072754;28;20422;-71
2022/03/18 15:44:15;;;;;;;42.80;20.88;;;;;;;12.36;56.69;102337.03;5073021;28;20056;-70
2022/03/18 15:46:43;;;;;;;45.97;21.45;;;;;;;12.34;56.33;102333.66;5072873;28;20036;-70
2022/03/18 15:49:09;;;;;;;42.70;20.92;;;;;;;12.36;56.45;102333.53;5055175;28;20056;-70
2022/03/18 15:51:34;;;;;;;47.33;21.65;;;;;;;12.38;56.12;102352.94;5072523;28;20362;-69
2022/03/18 15:54:00;;;;;;;45.25;21.00;;;;;;;12.20;57.08;102336.69;5072483;28;20123;-71
2022/03/18 15:56:26;;;;;;;43.25;20.17;;;;;;;12.31;56.38;102359.78;5054797;28;20028;-70
2022/03/18 15:58:52;;;;;;;47.50;20.65;;;;;;;12.22;56.51;102348.09;5055131;28;20047;-71
2022/03/18 16:01:18;;;;;;;46.28;21.80;;;;;;;12.09;56.49;102336.78;5072677;28;20498;-70
2022/03/18 16:03:44;;;;;;;43.05;20.48;;;;;;;12.21;56.24;102352.59;5054625;28;20036;-70
2022/03/18 16:06:10;;;;;;;42.60;20.45;;;;;;;12.04;56.70;102345.19;5071762;28;20039;-70
2022/03/18 16:08:38;;;;;;;45.17;21.15;;;;;;;12.03;56.44;102356.00;5072542;28;20044;-70
2022/03/18 16:11:03;;;;;;;37.63;18.98;;;;;;;12.07;56.37;102349.44;5054344;28;20032;-71
2022/03/18 16:13:30;;;;;;;41.88;19.42;;;;;;;12.03;56.71;102345.31;5054259;28;20056;-71
2022/03/18 16:15:57;;;;;;;43.45;19.80;;;;;;;12.05;56.54;102356.69;5072208;28;20031;-71
2022/03/18 16:18:29;;;;;;;42.63;20.93;;;;;;;11.93;57.19;102358.59;5072119;28;20037;-71
2022/03/18 16:21:05;;;;;;;42.10;20.25;;;;;;;11.84;57.20;102349.56;5072392;28;20362;-71
2022/03/18 16:23:32;;;;;;;38.15;19.63;;;;;;;11.86;56.91;102368.09;5054153;28;20127;-71
2022/03/18 16:25:58;;;;;;;39.92;20.55;;;;;;;11.82;56.99;102359.53;5072243;28;20100;-71
2022/03/18 16:28:27;;;;;;;41.15;20.40;;;;;;;11.85;57.29;102355.75;5072031;28;20033;-70
2022/03/18 16:30:53;;;;;;;44.83;18.98;;;;;;;11.80;57.20;102363.25;5072081;28;20070;-71
2022/03/18 16:33:18;;;;;;;39.67;19.05;;;;;;;11.78;57.25;102368.72;5071830;28;20106;-71
2022/03/18 16:35:45;;;;;;;43.15;19.17;;;;;;;11.74;57.22;102363.81;5054326;28;20038;-70
2022/03/18 16:38:10;;;;;;;38.58;19.90;;;;;;;11.71;57.47;102374.72;5071960;28;20055;-70
2022/03/18 16:40:40;;;;;;;39.85;19.90;;;;;;;11.71;57.53;102375.56;5072382;28;20393;-71
2022/03/18 16:43:06;;;;;;;40.03;19.27;;;;;;;11.66;56.96;102362.59;5071412;28;20028;-70
2022/03/18 16:49:23;;;;;;;40.25;18.45;;;;;;;11.68;57.64;102376.69;5071613;28;20044;-70
2022/03/18 16:51:06;;;;;;;;;;;;;;;11.58;58.21;102382.91;5056756;28;20295;-70
2022/03/18 16:53:34;;;;;;;36.00;18.27;;;;;;;11.49;58.63;102376.53;5071205;28;20301;-70
2022/03/18 16:56:01;;;;;;;45.25;19.73;;;;;;;11.41;58.93;102385.16;5071853;28;20037;-71
2022/03/18 16:58:27;;;;;;;38.40;19.23;;;;;;;11.43;58.93;102408.22;5071615;28;20040;-70
2022/03/18 17:00:53;;;;;;;43.70;20.40;;;;;;;11.47;58.94;102399.81;5071879;28;20036;-70
2022/03/18 17:03:20;;;;;;;38.22;18.27;;;;;;;11.38;59.24;102400.56;5071861;28;20041;-70
2022/03/18 17:05:46;;;;;;;41.67;19.13;;;;;;;11.36;59.34;102400.72;5072246;28;20041;-69